createdAt,value
2022-10-28T00:01:17.934Z,15.10
2022-10-28T00:03:50.368Z,15.10
2022-10-28T00:06:30.071Z,15.10
2022-10-28T00:08:57.736Z,15.00
2022-10-28T00:11:30.438Z,15.10
2022-10-28T00:13:59.279Z,15.00
2022-10-28T00:16:28.869Z,15.00
2022-10-28T00:18:56.217Z,15.00
2022-10-28T00:21:28.445Z,14.90
2022-10-28T00:23:55.982Z,14.90
2022-10-28T00:26:28.759Z,14.90
2022-10-28T00:28:58.430Z,14.90
2022-10-28T00:31:27.132Z,14.70
2022-10-28T00:33:54.649Z,14.70
2022-10-28T00:36:27.328Z,14.70
2022-10-28T00:38:56.000Z,14.70
2022-10-28T00:41:26.371Z,14.70
2022-10-28T00:43:58.566Z,14.60
2022-10-28T00:46:31.584Z,14.60
2022-10-28T00:49:08.934Z,14.60
2022-10-28T00:51:36.375Z,14.50
2022-10-28T00:54:04.344Z,14.40
2022-10-28T00:56:34.281Z,14.40
2022-10-28T00:59:06.814Z,14.50
2022-10-28T01:01:33.775Z,14.40
2022-10-28T01:04:01.412Z,14.50
2022-10-28T01:06:29.286Z,14.40
2022-10-28T01:08:59.144Z,14.40
2022-10-28T01:11:40.739Z,14.40
2022-10-28T01:14:16.420Z,14.40
2022-10-28T01:17:08.827Z,14.40
2022-10-28T01:20:09.431Z,14.40
2022-10-28T01:22:44.796Z,14.40
2022-10-28T01:25:32.839Z,14.30
2022-10-28T01:28:27.409Z,14.40
2022-10-28T01:31:02.934Z,14.30
2022-10-28T01:33:43.048Z,14.20
2022-10-28T01:36:24.653Z,14.30
2022-10-28T01:39:06.485Z,14.20
2022-10-28T01:41:47.189Z,14.20
2022-10-28T01:45:01.751Z,14.20
2022-10-28T01:47:49.680Z,14.10
2022-10-28T01:50:39.271Z,14.20
2022-10-28T01:53:17.102Z,14.20
2022-10-28T01:55:47.650Z,14.30
2022-10-28T01:58:20.134Z,14.20
2022-10-28T02:00:48.691Z,14.20
2022-10-28T02:03:16.868Z,14.20
2022-10-28T02:05:45.366Z,14.10
2022-10-28T02:08:18.245Z,14.10
2022-10-28T02:11:06.422Z,14.10
2022-10-28T02:13:51.650Z,14.10
2022-10-28T02:16:22.926Z,14.10
2022-10-28T02:18:55.435Z,14.20
2022-10-28T02:21:34.012Z,14.20
2022-10-28T02:24:22.948Z,14.10
2022-10-28T02:26:59.755Z,14.10
2022-10-28T02:29:43.349Z,14.00
2022-10-28T02:32:18.563Z,14.10
2022-10-28T02:34:49.381Z,14.00
2022-10-28T02:37:24.175Z,13.90
2022-10-28T02:39:56.302Z,13.90
2022-10-28T02:42:31.163Z,13.90
2022-10-28T02:45:01.636Z,13.80
2022-10-28T02:47:32.585Z,13.90
2022-10-28T02:50:04.245Z,13.90
2022-10-28T02:52:33.386Z,14.00
2022-10-28T02:55:02.001Z,13.90
2022-10-28T02:57:35.931Z,13.90
2022-10-28T03:00:07.925Z,13.90
2022-10-28T03:02:34.931Z,13.80
2022-10-28T03:05:02.079Z,13.90
2022-10-28T03:07:28.824Z,13.90
2022-10-28T03:09:55.561Z,13.90
2022-10-28T03:12:22.413Z,13.90
2022-10-28T03:14:49.146Z,13.90
2022-10-28T03:17:15.878Z,13.90
2022-10-28T03:19:42.674Z,14.00
2022-10-28T03:22:09.439Z,14.10
2022-10-28T03:24:36.253Z,14.20
2022-10-28T03:27:03.515Z,14.10
2022-10-28T03:29:30.329Z,14.10
2022-10-28T03:31:57.156Z,14.20
2022-10-28T03:34:23.927Z,14.20
2022-10-28T03:36:50.801Z,14.20
2022-10-28T03:39:17.745Z,14.10
2022-10-28T03:41:44.543Z,14.20
2022-10-28T03:44:11.429Z,14.20
2022-10-28T03:46:38.373Z,14.20
2022-10-28T03:49:05.127Z,14.30
2022-10-28T03:51:31.999Z,14.20
2022-10-28T03:53:58.831Z,14.20
2022-10-28T03:56:25.613Z,14.30
2022-10-28T04:01:24.194Z,14.20
2022-10-28T04:03:51.001Z,14.20
2022-10-28T04:06:17.778Z,14.20
2022-10-28T04:08:44.538Z,14.20
2022-10-28T04:11:11.297Z,14.20
2022-10-28T04:13:38.039Z,14.20
2022-10-28T04:16:05.239Z,14.20
2022-10-28T04:18:32.144Z,14.30
2022-10-28T04:20:58.895Z,14.30
2022-10-28T04:23:25.700Z,14.30
2022-10-28T04:25:54.380Z,14.30
2022-10-28T04:28:24.134Z,14.20
2022-10-28T04:30:51.022Z,14.20
2022-10-28T04:33:17.801Z,14.10
2022-10-28T04:35:45.301Z,14.20
2022-10-28T04:38:13.934Z,14.10
2022-10-28T04:40:40.778Z,14.10
2022-10-28T04:43:09.861Z,14.00
2022-10-28T04:45:37.843Z,14.10
2022-10-28T04:48:04.824Z,14.00
2022-10-28T04:50:31.736Z,14.10
2022-10-28T04:52:58.457Z,14.00
2022-10-28T04:55:25.231Z,14.00
2022-10-28T04:57:56.801Z,14.10
2022-10-28T05:00:24.854Z,14.00
2022-10-28T05:02:52.213Z,14.00
2022-10-28T05:05:19.150Z,14.00
2022-10-28T05:07:46.285Z,14.00
2022-10-28T05:10:15.487Z,14.00
2022-10-28T05:12:43.255Z,14.00
2022-10-28T05:15:11.653Z,14.00
2022-10-28T05:17:46.238Z,14.00
2022-10-28T05:20:15.656Z,14.00
2022-10-28T05:22:50.574Z,14.20
2022-10-28T05:25:18.009Z,14.20
2022-10-28T05:27:45.152Z,14.30
2022-10-28T05:30:13.095Z,14.30
2022-10-28T05:32:41.243Z,14.40
2022-10-28T05:35:09.314Z,14.40
2022-10-28T05:37:36.219Z,14.30
2022-10-28T05:40:03.355Z,14.30
2022-10-28T05:42:30.203Z,14.30
2022-10-28T05:44:56.957Z,14.30
2022-10-28T05:47:24.179Z,14.20
2022-10-28T05:49:50.943Z,14.10
2022-10-28T05:52:17.673Z,14.20
2022-10-28T05:54:44.416Z,14.20
2022-10-28T05:57:11.168Z,14.30
2022-10-28T05:59:37.919Z,14.30
2022-10-28T06:02:04.882Z,14.30
2022-10-28T06:04:32.938Z,14.30
2022-10-28T06:06:59.746Z,14.30
2022-10-28T06:09:28.404Z,14.30
2022-10-28T06:11:53.602Z,14.40
2022-10-28T06:14:20.346Z,14.20
2022-10-28T06:16:47.076Z,14.20
2022-10-28T06:19:13.862Z,14.20
2022-10-28T06:21:40.607Z,14.30
2022-10-28T06:24:11.331Z,14.20
2022-10-28T06:26:39.609Z,14.30
2022-10-28T06:29:09.149Z,14.30
2022-10-28T06:31:39.992Z,14.20
2022-10-28T06:34:08.550Z,14.30
2022-10-28T06:36:35.449Z,14.20
2022-10-28T06:39:02.622Z,14.20
2022-10-28T06:41:29.389Z,14.20
2022-10-28T06:43:56.201Z,14.10
2022-10-28T06:46:23.081Z,14.10
2022-10-28T06:48:53.238Z,14.10
2022-10-28T06:51:20.111Z,14.10
2022-10-28T06:53:53.144Z,14.20
2022-10-28T06:56:19.906Z,14.10
2022-10-28T06:58:51.007Z,14.10
2022-10-28T07:01:18.855Z,14.10
2022-10-28T07:03:46.426Z,14.10
2022-10-28T07:08:41.305Z,14.20
2022-10-28T07:11:08.161Z,14.20
2022-10-28T07:13:34.968Z,14.30
2022-10-28T07:16:02.059Z,14.30
2022-10-28T07:18:30.233Z,14.30
2022-10-28T07:21:01.355Z,14.40
2022-10-28T07:23:29.145Z,14.40
2022-10-28T07:25:56.707Z,14.40
2022-10-28T07:28:25.492Z,14.40
2022-10-28T07:30:52.541Z,14.50
2022-10-28T07:33:19.658Z,14.60
2022-10-28T07:35:46.520Z,14.60
2022-10-28T07:38:13.272Z,14.60
2022-10-28T07:40:40.067Z,14.60
2022-10-28T07:43:06.835Z,14.60
2022-10-28T07:45:35.157Z,14.70
2022-10-28T07:48:02.431Z,14.80
2022-10-28T07:50:29.272Z,14.80
2022-10-28T07:52:56.598Z,14.80
2022-10-28T07:55:23.618Z,14.80
2022-10-28T07:57:50.474Z,14.80
2022-10-28T08:00:17.636Z,14.80
2022-10-28T08:02:44.452Z,14.90
2022-10-28T08:05:11.220Z,14.90
2022-10-28T08:07:38.911Z,14.90
2022-10-28T08:10:06.707Z,15.00
2022-10-28T08:12:33.671Z,15.20
2022-10-28T08:15:00.503Z,15.20
2022-10-28T08:17:27.271Z,15.30
2022-10-28T08:19:54.075Z,15.40
2022-10-28T08:22:20.844Z,15.40
2022-10-28T08:24:47.596Z,15.50
2022-10-28T08:27:14.330Z,15.60
2022-10-28T08:29:41.075Z,15.60
2022-10-28T08:32:09.212Z,15.60
2022-10-28T08:34:38.067Z,15.70
2022-10-28T08:37:10.478Z,15.70
2022-10-28T08:39:37.508Z,15.80
2022-10-28T08:42:27.951Z,15.90
2022-10-28T08:45:15.783Z,15.90
2022-10-28T08:48:03.153Z,16.20
2022-10-28T08:50:32.002Z,16.60
2022-10-28T08:53:11.897Z,17.20
2022-10-28T08:55:48.422Z,17.80
2022-10-28T08:58:26.571Z,18.20
2022-10-28T09:00:55.850Z,18.70
2022-10-28T09:03:26.325Z,19.00
2022-10-28T09:06:05.888Z,19.20
2022-10-28T09:08:45.229Z,19.40
2022-10-28T09:11:14.902Z,19.60
2022-10-28T09:14:01.927Z,19.60
2022-10-28T09:16:46.023Z,19.70
2022-10-28T09:19:33.037Z,19.90
2022-10-28T09:22:21.042Z,19.70
2022-10-28T09:24:54.744Z,19.80
2022-10-28T09:27:40.407Z,20.00
2022-10-28T09:30:19.473Z,20.20
2022-10-28T09:33:21.671Z,20.30
2022-10-28T09:35:49.529Z,20.30
2022-10-28T09:38:25.291Z,20.50
2022-10-28T09:40:58.238Z,20.60
2022-10-28T09:43:38.009Z,20.50
2022-10-28T09:46:12.451Z,20.50
2022-10-28T09:48:48.968Z,20.50
2022-10-28T09:51:46.087Z,20.60
2022-10-28T09:54:14.156Z,20.70
2022-10-28T09:56:41.476Z,20.80
2022-10-28T09:59:14.377Z,20.90
2022-10-28T10:01:43.560Z,20.90
2022-10-28T10:04:25.204Z,20.90
2022-10-28T10:07:16.137Z,21.10
2022-10-28T10:09:44.317Z,21.00
2022-10-28T10:12:12.874Z,21.10
2022-10-28T10:14:50.094Z,20.90
2022-10-28T10:17:20.227Z,20.80
2022-10-28T10:20:04.986Z,20.70
2022-10-28T10:22:34.961Z,20.80
2022-10-28T10:25:03.288Z,20.70
2022-10-28T10:27:31.506Z,20.70
2022-10-28T10:29:59.078Z,20.60
2022-10-28T10:32:29.962Z,20.80
2022-10-28T10:35:24.404Z,20.90
2022-10-28T10:37:52.544Z,20.90
2022-10-28T10:40:49.153Z,20.70
2022-10-28T10:43:18.613Z,20.60
2022-10-28T10:46:00.705Z,20.70
2022-10-28T10:48:29.282Z,20.70
2022-10-28T10:50:56.806Z,20.70
2022-10-28T10:53:26.349Z,20.70
2022-10-28T10:56:05.673Z,20.80
2022-10-28T10:58:51.671Z,21.00
2022-10-28T11:01:27.109Z,21.00
2022-10-28T11:04:03.015Z,21.00
2022-10-28T11:06:34.221Z,20.90
2022-10-28T11:09:04.470Z,21.00
2022-10-28T11:11:41.168Z,21.00
2022-10-28T11:14:12.326Z,21.00
2022-10-28T11:16:50.503Z,21.10
2022-10-28T11:19:43.762Z,21.10
2022-10-28T11:22:13.550Z,21.00
2022-10-28T11:25:05.416Z,21.00
2022-10-28T11:27:41.107Z,21.10
2022-10-28T11:30:15.601Z,21.00
2022-10-28T11:33:24.657Z,21.00
2022-10-28T11:35:54.718Z,21.00
2022-10-28T11:38:45.678Z,21.00
2022-10-28T11:41:36.990Z,21.00
2022-10-28T11:44:16.584Z,21.00
2022-10-28T11:47:00.942Z,21.00
2022-10-28T11:50:08.657Z,20.90
2022-10-28T11:52:57.891Z,20.90
2022-10-28T11:55:45.768Z,20.90
2022-10-28T11:58:19.444Z,20.90
2022-10-28T12:00:57.964Z,20.80
2022-10-28T12:04:10.069Z,20.70
2022-10-28T12:06:36.763Z,20.60
2022-10-28T12:09:18.623Z,20.60
2022-10-28T12:11:48.397Z,20.60
2022-10-28T12:14:22.168Z,20.60
2022-10-28T12:16:58.489Z,20.60
2022-10-28T12:19:37.497Z,20.60
2022-10-28T12:22:26.530Z,20.70
2022-10-28T12:24:54.313Z,20.80
2022-10-28T12:27:32.563Z,20.80
2022-10-28T12:30:07.340Z,20.80
2022-10-28T12:32:36.196Z,20.80
2022-10-28T12:35:08.435Z,20.80
2022-10-28T12:37:58.661Z,20.70
2022-10-28T12:40:34.097Z,20.70
2022-10-28T12:43:13.875Z,20.70
2022-10-28T12:45:42.400Z,20.80
2022-10-28T12:48:42.185Z,20.90
2022-10-28T12:51:26.869Z,21.00
2022-10-28T12:54:15.091Z,20.90
2022-10-28T12:56:58.014Z,21.00
2022-10-28T13:00:00.008Z,21.10
2022-10-28T13:02:35.412Z,21.10
2022-10-28T13:05:04.564Z,21.10
2022-10-28T13:07:53.568Z,21.00
2022-10-28T13:10:32.554Z,21.00
2022-10-28T13:13:33.693Z,20.90
2022-10-28T13:16:09.816Z,20.90
2022-10-28T13:19:04.149Z,20.90
2022-10-28T13:21:58.631Z,20.80
2022-10-28T13:24:28.160Z,20.70
2022-10-28T13:26:55.325Z,20.60
2022-10-28T13:29:28.988Z,20.60
2022-10-28T13:31:56.388Z,20.50
2022-10-28T13:34:32.905Z,20.50
2022-10-28T13:37:03.343Z,20.40
2022-10-28T13:39:31.714Z,20.40
2022-10-28T13:42:13.760Z,20.30
2022-10-28T13:44:53.944Z,20.20
2022-10-28T13:47:38.828Z,20.20
2022-10-28T13:50:09.035Z,20.20
2022-10-28T13:52:44.523Z,20.30
2022-10-28T13:55:14.094Z,20.20
2022-10-28T13:57:46.281Z,20.10
2022-10-28T14:00:19.017Z,20.00
2022-10-28T14:02:55.429Z,20.00
2022-10-28T14:05:37.971Z,19.90
2022-10-28T14:08:26.748Z,19.90
2022-10-28T14:11:01.454Z,19.90
2022-10-28T14:13:29.337Z,19.90
2022-10-28T14:16:28.003Z,19.80
2022-10-28T14:19:06.443Z,19.90
2022-10-28T14:22:02.098Z,19.80
2022-10-28T14:24:41.106Z,19.70
2022-10-28T14:27:15.372Z,19.60
2022-10-28T14:29:46.738Z,19.60
2022-10-28T14:32:32.029Z,19.60
2022-10-28T14:35:10.844Z,19.60
2022-10-28T14:38:02.317Z,19.50
2022-10-28T14:40:54.282Z,19.40
2022-10-28T14:43:30.665Z,19.30
2022-10-28T14:46:20.780Z,19.30
2022-10-28T14:48:50.706Z,19.40
2022-10-28T14:51:24.183Z,19.40
2022-10-28T14:53:54.992Z,19.30
2022-10-28T14:56:29.874Z,19.40
2022-10-28T14:59:23.378Z,19.20
2022-10-28T15:02:13.111Z,19.20
2022-10-28T15:04:41.668Z,19.20
2022-10-28T15:07:14.779Z,19.10
2022-10-28T15:09:43.510Z,19.20
2022-10-28T15:12:13.602Z,19.10
2022-10-28T15:14:41.586Z,19.10
2022-10-28T15:17:23.471Z,19.10
2022-10-28T15:19:52.752Z,19.00
2022-10-28T15:22:24.827Z,18.90
2022-10-28T15:25:12.855Z,18.70
2022-10-28T15:27:42.926Z,18.70
2022-10-28T15:30:20.843Z,18.60
2022-10-28T15:32:47.688Z,18.70
2022-10-28T15:35:29.991Z,18.60
2022-10-28T15:37:59.812Z,18.50
2022-10-28T15:40:32.079Z,18.60
2022-10-28T15:43:00.852Z,18.50
2022-10-28T15:45:30.498Z,18.40
2022-10-28T15:47:58.587Z,18.40
2022-10-28T15:50:32.728Z,18.30
2022-10-28T15:53:11.726Z,18.20
2022-10-28T15:56:02.787Z,18.10
2022-10-28T15:58:38.582Z,18.00
2022-10-28T16:01:28.606Z,18.00
2022-10-28T16:03:55.917Z,18.00
2022-10-28T16:06:36.012Z,18.20
2022-10-28T16:09:30.134Z,18.10
2022-10-28T16:12:00.047Z,18.00
2022-10-28T16:14:40.584Z,18.00
2022-10-28T16:17:23.732Z,18.00
2022-10-28T16:19:58.991Z,18.00
2022-10-28T16:22:28.627Z,17.90
2022-10-28T16:24:56.393Z,18.00
2022-10-28T16:27:31.657Z,18.10
2022-10-28T16:29:58.825Z,18.00
2022-10-28T16:32:35.171Z,18.00
2022-10-28T16:35:02.739Z,18.00
2022-10-28T16:37:31.914Z,18.00
2022-10-28T16:39:58.871Z,17.90
2022-10-28T16:42:26.810Z,17.90
2022-10-28T16:44:53.623Z,17.90
2022-10-28T16:47:22.381Z,17.80
2022-10-28T16:49:52.640Z,17.70
2022-10-28T16:52:26.386Z,17.70
2022-10-28T16:54:53.380Z,17.50
2022-10-28T16:57:21.180Z,17.50
2022-10-28T16:59:48.199Z,17.40
2022-10-28T17:02:27.605Z,17.30
2022-10-28T17:04:54.601Z,17.30
2022-10-28T17:07:21.493Z,17.50
2022-10-28T17:09:48.341Z,17.40
2022-10-28T17:12:17.269Z,17.30
2022-10-28T17:14:44.213Z,17.40
2022-10-28T17:17:11.749Z,17.30
2022-10-28T17:19:41.833Z,17.40
2022-10-28T17:22:10.669Z,17.30
2022-10-28T17:24:37.649Z,17.40
2022-10-28T17:27:05.769Z,17.30
2022-10-28T17:29:32.767Z,17.20
2022-10-28T17:31:59.531Z,17.20
2022-10-28T17:34:26.394Z,17.20
2022-10-28T17:36:53.133Z,17.20
2022-10-28T17:39:25.732Z,17.20
2022-10-28T17:41:53.634Z,17.20
2022-10-28T17:44:20.617Z,17.20
2022-10-28T17:46:51.091Z,17.20
2022-10-28T17:49:18.350Z,17.20
2022-10-28T17:51:45.094Z,17.20
2022-10-28T17:54:12.045Z,17.10
2022-10-28T17:56:41.797Z,17.10
2022-10-28T17:59:08.571Z,17.10
2022-10-28T18:01:35.964Z,17.10
2022-10-28T18:04:04.465Z,17.20
2022-10-28T18:06:31.794Z,17.20
2022-10-28T18:08:58.631Z,17.20
2022-10-28T18:11:26.548Z,17.20
2022-10-28T18:13:55.827Z,17.20
2022-10-28T18:16:25.352Z,17.20
2022-10-28T18:18:53.721Z,17.10
2022-10-28T18:21:21.467Z,17.10
2022-10-28T18:24:03.440Z,17.10
2022-10-28T18:26:32.364Z,17.10
2022-10-28T18:28:59.170Z,17.20
2022-10-28T18:31:26.127Z,17.10
2022-10-28T18:33:52.960Z,17.20
2022-10-28T18:36:24.011Z,17.20
2022-10-28T18:38:51.649Z,17.30
2022-10-28T18:41:20.687Z,17.40
2022-10-28T18:43:47.635Z,17.40
2022-10-28T18:46:14.738Z,17.30
2022-10-28T18:48:41.739Z,17.30
2022-10-28T18:51:11.594Z,17.30
2022-10-28T18:53:43.582Z,17.30
2022-10-28T18:56:30.286Z,17.30
2022-10-28T18:58:58.439Z,17.20
2022-10-28T19:01:27.857Z,17.20
2022-10-28T19:03:57.310Z,17.40
2022-10-28T19:06:26.066Z,17.30
2022-10-28T19:08:54.764Z,17.30
2022-10-28T19:11:23.003Z,17.30
2022-10-28T19:13:49.821Z,17.20
2022-10-28T19:16:16.673Z,17.10
2022-10-28T19:18:43.469Z,17.10
2022-10-28T19:21:15.796Z,17.10
2022-10-28T19:23:43.430Z,17.10
2022-10-28T19:26:11.524Z,17.10
2022-10-28T19:28:43.831Z,17.20
2022-10-28T19:31:14.162Z,17.20
2022-10-28T19:33:43.152Z,17.20
2022-10-28T19:36:24.905Z,17.20
2022-10-28T19:38:53.785Z,17.20
2022-10-28T19:41:25.395Z,17.10
2022-10-28T19:43:58.517Z,17.10
2022-10-28T19:46:27.411Z,17.30
2022-10-28T19:48:59.443Z,17.30
2022-10-28T19:51:29.044Z,17.40
2022-10-28T19:54:00.949Z,17.40
2022-10-28T19:56:33.754Z,17.40
2022-10-28T19:59:01.633Z,17.50
2022-10-28T20:01:31.423Z,17.50
2022-10-28T20:03:58.628Z,17.50
2022-10-28T20:06:30.022Z,17.60
2022-10-28T20:08:56.770Z,17.70
2022-10-28T20:11:31.812Z,17.70
2022-10-28T20:14:01.003Z,17.60
2022-10-28T20:16:28.474Z,17.60
2022-10-28T20:18:56.060Z,17.60
2022-10-28T20:21:27.837Z,17.60
2022-10-28T20:23:56.299Z,17.50
2022-10-28T20:26:28.838Z,17.60
2022-10-28T20:28:56.568Z,17.60
2022-10-28T20:31:29.012Z,17.60
2022-10-28T20:33:58.719Z,17.60
2022-10-28T20:36:26.529Z,17.50
2022-10-28T20:39:13.288Z,17.50
2022-10-28T20:41:42.182Z,17.50
2022-10-28T20:44:09.074Z,17.40
2022-10-28T20:46:36.275Z,17.40
2022-10-28T20:49:04.033Z,17.40
2022-10-28T20:51:32.502Z,17.40
2022-10-28T20:54:00.055Z,17.30
2022-10-28T20:56:32.097Z,17.40
2022-10-28T20:58:59.527Z,17.30
2022-10-28T21:01:29.416Z,17.30
2022-10-28T21:03:59.089Z,17.30
2022-10-28T21:06:26.850Z,17.20
2022-10-28T21:08:54.641Z,17.30
2022-10-28T21:11:23.504Z,17.20
2022-10-28T21:13:56.441Z,17.10
2022-10-28T21:16:24.013Z,17.10
2022-10-28T21:18:51.524Z,17.00
2022-10-28T21:21:20.158Z,17.00
2022-10-28T21:23:46.964Z,17.00
2022-10-28T21:26:14.184Z,17.00
2022-10-28T21:28:41.521Z,16.90
2022-10-28T21:31:08.295Z,16.90
2022-10-28T21:33:36.675Z,17.00
2022-10-28T21:36:06.402Z,16.90
2022-10-28T21:38:33.589Z,16.90
2022-10-28T21:41:09.570Z,16.90
2022-10-28T21:43:38.588Z,16.90
2022-10-28T21:46:06.097Z,16.90
2022-10-28T21:48:34.643Z,16.80
2022-10-28T21:51:03.370Z,16.80
2022-10-28T21:53:34.756Z,16.80
2022-10-28T21:56:08.346Z,16.80
2022-10-28T21:58:36.628Z,16.80
2022-10-28T22:01:12.056Z,16.80
2022-10-28T22:03:39.332Z,16.70
2022-10-28T22:06:06.576Z,16.70
2022-10-28T22:08:33.437Z,16.70
2022-10-28T22:11:01.979Z,16.70
2022-10-28T22:13:29.016Z,16.70
2022-10-28T22:15:57.903Z,16.70
2022-10-28T22:18:24.993Z,16.70
2022-10-28T22:20:51.901Z,16.70
2022-10-28T22:23:18.746Z,16.70
2022-10-28T22:25:45.492Z,16.60
2022-10-28T22:28:12.344Z,16.60
2022-10-28T22:30:39.191Z,16.60
2022-10-28T22:33:06.007Z,16.60
2022-10-28T22:35:32.771Z,16.50
2022-10-28T22:37:59.520Z,16.50
2022-10-28T22:40:26.318Z,16.50
2022-10-28T22:42:53.043Z,16.50
2022-10-28T22:45:19.811Z,16.50
2022-10-28T22:47:46.575Z,16.60
2022-10-28T22:50:13.492Z,16.50
2022-10-28T22:52:40.253Z,16.40
2022-10-28T22:55:07.194Z,16.40
2022-10-28T22:57:33.941Z,16.40
2022-10-28T23:00:00.707Z,16.30
2022-10-28T23:02:27.620Z,16.30
2022-10-28T23:04:54.706Z,16.30
2022-10-28T23:07:21.536Z,16.20
2022-10-28T23:09:48.276Z,16.30
2022-10-28T23:12:15.050Z,16.20
2022-10-28T23:14:41.819Z,16.10
2022-10-28T23:17:08.549Z,16.10
2022-10-28T23:19:35.297Z,16.10
2022-10-28T23:22:02.085Z,16.10
2022-10-28T23:24:28.914Z,16.00
2022-10-28T23:26:55.669Z,16.00
2022-10-28T23:29:22.396Z,16.00
2022-10-28T23:31:49.128Z,16.00
2022-10-28T23:34:15.912Z,16.10
2022-10-28T23:36:42.673Z,16.10
2022-10-28T23:39:09.903Z,16.10
2022-10-28T23:41:36.664Z,16.10
2022-10-28T23:44:03.486Z,16.00
2022-10-28T23:46:35.003Z,16.00
2022-10-28T23:49:04.244Z,16.00
2022-10-28T23:51:31.058Z,15.90
2022-10-28T23:53:58.457Z,15.80
2022-10-28T23:56:25.317Z,15.80
2022-10-28T23:58:52.055Z,15.80
